createdAt,value
2022-10-23T00:01:29.162Z,101293.66
2022-10-23T00:04:01.997Z,101298.63
2022-10-23T00:06:30.321Z,101297.41
2022-10-23T00:08:56.978Z,101294.69
2022-10-23T00:11:25.795Z,101295.53
2022-10-23T00:13:54.820Z,101294.69
2022-10-23T00:16:21.939Z,101299.09
2022-10-23T00:18:48.662Z,101304.50
2022-10-23T00:21:17.095Z,101301.78
2022-10-23T00:23:44.879Z,101306.56
2022-10-23T00:26:15.752Z,101309.09
2022-10-23T00:28:43.933Z,101305.53
2022-10-23T00:31:11.476Z,101310.75
2022-10-23T00:33:38.205Z,101311.78
2022-10-23T00:36:07.320Z,101316.38
2022-10-23T00:38:34.455Z,101312.16
2022-10-23T00:41:01.323Z,101317.41
2022-10-23T00:43:30.494Z,101313.00
2022-10-23T00:45:58.180Z,101316.19
2022-10-23T00:48:26.581Z,101325.53
2022-10-23T00:50:54.457Z,101321.53
2022-10-23T00:53:22.249Z,101316.56
2022-10-23T00:55:51.534Z,101315.53
2022-10-23T00:58:20.221Z,101311.97
2022-10-23T01:00:47.985Z,101318.25
2022-10-23T01:03:18.355Z,101319.91
2022-10-23T01:06:03.033Z,101312.44
2022-10-23T01:08:38.660Z,101316.19
2022-10-23T01:11:12.107Z,101314.50
2022-10-23T01:17:05.830Z,101315.72
2022-10-23T01:19:56.746Z,101314.88
2022-10-23T01:22:54.722Z,101312.81
2022-10-23T01:25:30.281Z,101308.63
2022-10-23T01:28:03.869Z,101314.03
2022-10-23T01:30:33.594Z,101316.75
2022-10-23T01:33:23.036Z,101311.97
2022-10-23T01:35:53.762Z,101312.16
2022-10-23T01:38:32.740Z,101312.81
2022-10-23T01:41:11.245Z,101324.03
2022-10-23T01:43:59.922Z,101321.31
2022-10-23T01:46:28.054Z,101325.91
2022-10-23T01:48:56.072Z,101323.53
2022-10-23T01:51:27.090Z,101317.13
2022-10-23T01:53:58.252Z,101330.69
2022-10-23T01:56:32.151Z,101325.72
2022-10-23T01:59:03.396Z,101324.88
2022-10-23T02:01:33.101Z,101316.94
2022-10-23T02:04:03.170Z,101317.78
2022-10-23T02:06:29.842Z,101317.78
2022-10-23T02:08:56.824Z,101321.53
2022-10-23T02:11:23.740Z,101325.72
2022-10-23T02:14:13.199Z,101330.28
2022-10-23T02:16:44.823Z,101331.97
2022-10-23T02:19:36.596Z,101325.91
2022-10-23T02:22:06.136Z,101327.97
2022-10-23T02:25:10.960Z,101319.84
2022-10-23T02:27:42.594Z,101318.81
2022-10-23T02:30:12.137Z,101318.31
2022-10-23T02:32:45.605Z,101317.13
2022-10-23T02:35:12.810Z,101316.09
2022-10-23T02:37:40.131Z,101319.66
2022-10-23T02:40:09.272Z,101316.28
2022-10-23T02:42:53.242Z,101312.34
2022-10-23T02:45:32.742Z,101314.22
2022-10-23T02:48:22.964Z,101309.84
2022-10-23T02:51:00.286Z,101311.72
2022-10-23T02:53:32.700Z,101315.59
2022-10-23T02:56:22.887Z,101312.91
2022-10-23T02:59:43.009Z,101313.28
2022-10-23T03:02:21.413Z,101319.34
2022-10-23T03:04:48.691Z,101317.66
2022-10-23T03:07:18.754Z,101320.19
2022-10-23T03:09:45.386Z,101321.22
2022-10-23T03:12:11.955Z,101311.59
2022-10-23T03:14:38.490Z,101314.97
2022-10-23T03:17:06.216Z,101307.41
2022-10-23T03:19:32.791Z,101314.75
2022-10-23T03:21:59.425Z,101303.94
2022-10-23T03:24:25.959Z,101306.81
2022-10-23T03:26:52.532Z,101306.38
2022-10-23T03:29:19.109Z,101309.72
2022-10-23T03:31:45.764Z,101313.47
2022-10-23T03:34:13.689Z,101314.31
2022-10-23T03:36:40.595Z,101314.50
2022-10-23T03:39:07.168Z,101323.66
2022-10-23T03:41:33.714Z,101320.28
2022-10-23T03:44:00.329Z,101323.00
2022-10-23T03:46:26.953Z,101322.31
2022-10-23T03:48:53.672Z,101325.88
2022-10-23T03:51:20.218Z,101326.53
2022-10-23T03:53:46.788Z,101330.44
2022-10-23T03:56:13.332Z,101335.69
2022-10-23T03:58:39.975Z,101336.69
2022-10-23T04:01:06.613Z,101336.69
2022-10-23T04:03:33.241Z,101327.56
2022-10-23T04:05:59.826Z,101325.88
2022-10-23T04:08:26.452Z,101326.69
2022-10-23T04:10:54.721Z,101328.56
2022-10-23T04:13:21.299Z,101328.75
2022-10-23T04:15:49.566Z,101323.34
2022-10-23T04:18:16.670Z,101331.47
2022-10-23T04:20:43.215Z,101316.44
2022-10-23T04:23:09.905Z,101313.53
2022-10-23T04:25:36.495Z,101321.84
2022-10-23T04:28:03.087Z,101325.78
2022-10-23T04:30:29.645Z,101329.31
2022-10-23T04:32:56.235Z,101327.00
2022-10-23T04:35:22.849Z,101324.09
2022-10-23T04:37:49.567Z,101327.81
2022-10-23T04:40:16.142Z,101328.28
2022-10-23T04:42:42.993Z,101333.91
2022-10-23T04:45:10.098Z,101334.28
2022-10-23T04:47:36.656Z,101334.09
2022-10-23T04:50:03.652Z,101337.63
2022-10-23T04:52:30.194Z,101330.34
2022-10-23T04:54:56.727Z,101335.31
2022-10-23T04:57:23.320Z,101338.66
2022-10-23T04:59:49.873Z,101343.25
2022-10-23T05:02:16.436Z,101336.13
2022-10-23T05:04:42.963Z,101336.97
2022-10-23T05:07:09.555Z,101325.13
2022-10-23T05:09:36.166Z,101324.09
2022-10-23T05:12:02.729Z,101329.69
2022-10-23T05:14:29.283Z,101324.28
2022-10-23T05:17:11.709Z,101316.81
2022-10-23T05:19:47.712Z,101321.38
2022-10-23T05:22:15.177Z,101318.03
2022-10-23T05:24:41.714Z,101315.31
2022-10-23T05:27:08.347Z,101312.59
2022-10-23T05:29:34.934Z,101324.09
2022-10-23T05:32:05.417Z,101322.22
2022-10-23T05:34:35.190Z,101325.31
2022-10-23T05:37:07.884Z,101325.31
2022-10-23T05:39:35.057Z,101320.72
2022-10-23T05:42:01.615Z,101319.91
2022-10-23T05:44:28.185Z,101322.75
2022-10-23T05:46:54.730Z,101320.63
2022-10-23T05:49:21.327Z,101329.56
2022-10-23T05:51:47.887Z,101331.25
2022-10-23T05:54:14.495Z,101328.56
2022-10-23T05:56:44.069Z,101338.34
2022-10-23T05:59:10.922Z,101350.22
2022-10-23T06:01:37.772Z,101336.84
2022-10-23T06:04:05.483Z,101341.72
2022-10-23T06:06:32.057Z,101335.66
2022-10-23T06:08:58.599Z,101338.53
2022-10-23T06:11:25.218Z,101333.97
2022-10-23T06:13:51.901Z,101336.66
2022-10-23T06:16:25.463Z,101339.91
2022-10-23T06:18:51.999Z,101344.78
2022-10-23T06:21:18.639Z,101347.19
2022-10-23T06:23:46.040Z,101346.16
2022-10-23T06:26:14.967Z,101351.06
2022-10-23T06:28:43.151Z,101345.44
2022-10-23T06:31:13.774Z,101348.47
2022-10-23T06:33:41.075Z,101339.97
2022-10-23T06:36:10.708Z,101352.94
2022-10-23T06:38:40.335Z,101351.06
2022-10-23T06:41:18.625Z,101342.94
2022-10-23T06:43:48.293Z,101340.38
2022-10-23T06:46:15.572Z,101352.25
2022-10-23T06:48:43.062Z,101356.81
2022-10-23T06:51:12.464Z,101353.66
2022-10-23T06:53:39.379Z,101357.56
2022-10-23T06:56:07.741Z,101360.47
2022-10-23T06:58:35.697Z,101357.75
2022-10-23T07:01:06.238Z,101353.00
2022-10-23T07:03:34.302Z,101350.56
2022-10-23T07:06:05.867Z,101347.84
2022-10-23T07:08:33.060Z,101360.56
2022-10-23T07:11:04.298Z,101358.31
2022-10-23T07:13:30.842Z,101348.16
2022-10-23T07:15:57.418Z,101343.75
2022-10-23T07:18:24.013Z,101347.31
2022-10-23T07:20:58.009Z,101343.19
2022-10-23T07:23:24.540Z,101344.69
2022-10-23T07:25:51.219Z,101348.63
2022-10-23T07:28:17.780Z,101342.81
2022-10-23T07:30:44.400Z,101347.41
2022-10-23T07:33:12.430Z,101347.28
2022-10-23T07:35:40.850Z,101340.19
2022-10-23T07:38:07.548Z,101337.97
2022-10-23T07:40:34.136Z,101338.88
2022-10-23T07:43:00.710Z,101334.16
2022-10-23T07:45:27.231Z,101334.41
2022-10-23T07:47:53.798Z,101340.66
2022-10-23T07:50:20.378Z,101327.59
2022-10-23T07:52:47.157Z,101333.38
2022-10-23T07:55:14.401Z,101336.28
2022-10-23T07:57:40.960Z,101343.03
2022-10-23T08:00:08.526Z,101346.69
2022-10-23T08:02:35.119Z,101343.41
2022-10-23T08:05:01.773Z,101353.31
2022-10-23T08:07:28.339Z,101342.72
2022-10-23T08:09:55.027Z,101347.91
2022-10-23T08:12:21.581Z,101345.03
2022-10-23T08:14:48.119Z,101361.75
2022-10-23T08:17:14.672Z,101360.84
2022-10-23T08:19:46.306Z,101360.47
2022-10-23T08:22:13.159Z,101355.28
2022-10-23T08:24:39.748Z,101356.56
2022-10-23T08:27:06.287Z,101344.81
2022-10-23T08:29:32.939Z,101350.88
2022-10-23T08:31:59.511Z,101346.94
2022-10-23T08:34:26.100Z,101348.03
2022-10-23T08:36:52.661Z,101342.94
2022-10-23T08:39:19.304Z,101337.34
2022-10-23T08:41:51.952Z,101341.31
2022-10-23T08:44:45.926Z,101350.63
2022-10-23T08:47:24.576Z,101338.72
2022-10-23T08:49:58.188Z,101335.56
2022-10-23T08:52:45.562Z,101333.56
2022-10-23T08:55:17.971Z,101319.16
2022-10-23T08:58:15.973Z,101324.53
2022-10-23T09:00:44.229Z,101323.28
2022-10-23T09:03:12.857Z,101328.91
2022-10-23T09:05:42.189Z,101325.91
2022-10-23T09:08:08.875Z,101329.94
2022-10-23T09:10:53.780Z,101322.66
2022-10-23T09:13:45.161Z,101330.88
2022-10-23T09:16:26.917Z,101332.53
2022-10-23T09:18:55.739Z,101326.00
2022-10-23T09:21:29.679Z,101325.50
2022-10-23T09:23:56.563Z,101320.41
2022-10-23T09:26:23.612Z,101320.25
2022-10-23T09:28:55.241Z,101318.09
2022-10-23T09:31:21.859Z,101324.56
2022-10-23T09:33:57.797Z,101312.28
2022-10-23T09:36:27.503Z,101312.69
2022-10-23T09:38:56.084Z,101318.34
2022-10-23T09:41:40.062Z,101320.03
2022-10-23T09:44:22.497Z,101315.38
2022-10-23T09:46:55.168Z,101324.06
2022-10-23T09:49:25.596Z,101317.41
2022-10-23T09:52:02.732Z,101309.44
2022-10-23T09:54:36.959Z,101309.81
2022-10-23T09:57:19.999Z,101312.69
2022-10-23T09:59:54.662Z,101308.44
2022-10-23T10:02:27.311Z,101305.34
2022-10-23T10:04:53.947Z,101300.44
2022-10-23T10:07:30.203Z,101297.88
2022-10-23T10:09:58.890Z,101291.13
2022-10-23T10:12:51.541Z,101284.38
2022-10-23T10:15:28.214Z,101288.34
2022-10-23T10:18:02.255Z,101278.47
2022-10-23T10:20:31.637Z,101287.28
2022-10-23T10:23:15.173Z,101291.31
2022-10-23T10:26:03.232Z,101279.81
2022-10-23T10:28:29.779Z,101275.28
2022-10-23T10:31:18.183Z,101278.88
2022-10-23T10:34:12.376Z,101281.75
2022-10-23T10:36:55.065Z,101276.81
2022-10-23T10:39:45.963Z,101274.19
2022-10-23T10:42:31.234Z,101268.53
2022-10-23T10:45:16.338Z,101271.69
2022-10-23T10:47:57.616Z,101273.56
2022-10-23T10:50:33.251Z,101276.69
2022-10-23T10:53:18.219Z,101270.47
2022-10-23T10:55:48.786Z,101264.22
2022-10-23T10:58:25.043Z,101263.03
2022-10-23T11:00:56.956Z,101257.69
2022-10-23T11:03:37.633Z,101264.44
2022-10-23T11:06:14.926Z,101260.50
2022-10-23T11:08:56.259Z,101249.31
2022-10-23T11:11:36.209Z,101245.47
2022-10-23T11:14:03.456Z,101242.31
2022-10-23T11:16:37.509Z,101236.84
2022-10-23T11:19:18.145Z,101234.13
2022-10-23T11:21:52.221Z,101228.03
2022-10-23T11:24:38.901Z,101227.09
2022-10-23T11:27:27.509Z,101223.78
2022-10-23T11:30:31.260Z,101210.84
2022-10-23T11:33:15.975Z,101208.00
2022-10-23T11:36:06.669Z,101208.34
2022-10-23T11:38:39.186Z,101199.66
2022-10-23T11:41:28.481Z,101199.84
2022-10-23T11:44:01.510Z,101189.91
2022-10-23T11:46:38.756Z,101184.78
2022-10-23T11:49:19.507Z,101179.44
2022-10-23T11:51:46.464Z,101178.72
2022-10-23T11:54:16.123Z,101175.16
2022-10-23T11:57:17.196Z,101172.47
2022-10-23T11:59:49.478Z,101163.75
2022-10-23T12:02:37.595Z,101158.66
2022-10-23T12:05:25.409Z,101163.28
2022-10-23T12:07:58.574Z,101159.28
2022-10-23T12:10:47.937Z,101161.69
2022-10-23T12:13:37.443Z,101163.25
2022-10-23T12:16:07.487Z,101160.34
2022-10-23T12:18:44.540Z,101161.94
2022-10-23T12:21:21.574Z,101159.72
2022-10-23T12:24:22.729Z,101156.25
2022-10-23T12:27:23.544Z,101141.97
2022-10-23T12:30:23.397Z,101135.28
2022-10-23T12:33:06.231Z,101142.03
2022-10-23T12:35:47.757Z,101141.13
2022-10-23T12:38:26.831Z,101129.72
2022-10-23T12:41:12.794Z,101133.63
2022-10-23T12:43:41.403Z,101125.91
2022-10-23T12:46:28.216Z,101124.34
2022-10-23T12:48:56.889Z,101113.63
2022-10-23T12:51:32.030Z,101121.41
2022-10-23T12:53:58.665Z,101110.41
2022-10-23T12:56:28.601Z,101114.47
2022-10-23T12:59:01.363Z,101116.00
2022-10-23T13:01:34.118Z,101101.97
2022-10-23T13:04:30.233Z,101101.97
2022-10-23T13:07:01.687Z,101101.72
2022-10-23T13:09:41.967Z,101094.53
2022-10-23T13:12:18.522Z,101090.78
2022-10-23T13:15:16.437Z,101083.09
2022-10-23T13:17:59.252Z,101088.72
2022-10-23T13:20:28.971Z,101075.22
2022-10-23T13:23:31.093Z,101071.69
2022-10-23T13:26:02.881Z,101072.44
2022-10-23T13:28:43.703Z,101068.56
2022-10-23T13:31:10.225Z,101072.38
2022-10-23T13:33:38.117Z,101063.75
2022-10-23T13:36:13.514Z,101071.13
2022-10-23T13:39:03.291Z,101058.09
2022-10-23T13:41:38.010Z,101051.63
2022-10-23T13:44:05.293Z,101059.59
2022-10-23T13:46:32.223Z,101067.09
2022-10-23T13:48:58.873Z,101063.97
2022-10-23T13:51:28.466Z,101054.38
2022-10-23T13:53:56.916Z,101057.91
2022-10-23T13:56:25.334Z,101060.97
2022-10-23T13:58:52.364Z,101048.53
2022-10-23T14:01:26.215Z,101054.50
2022-10-23T14:03:54.346Z,101055.75
2022-10-23T14:06:21.041Z,101057.63
2022-10-23T14:08:47.916Z,101059.22
2022-10-23T14:11:17.079Z,101060.34
2022-10-23T14:13:44.116Z,101059.22
2022-10-23T14:16:13.989Z,101056.63
2022-10-23T14:18:41.057Z,101049.88
2022-10-23T14:21:10.879Z,101045.41
2022-10-23T14:23:37.444Z,101047.06
2022-10-23T14:26:05.648Z,101038.78
2022-10-23T14:28:32.941Z,101030.66
2022-10-23T14:31:05.489Z,101036.81
2022-10-23T14:33:32.129Z,101036.81
2022-10-23T14:35:58.721Z,101029.25
2022-10-23T14:38:25.455Z,101024.75
2022-10-23T14:40:52.128Z,101022.78
2022-10-23T14:43:18.684Z,101020.06
2022-10-23T14:45:45.519Z,101017.41
2022-10-23T14:48:12.154Z,101013.22
2022-10-23T14:50:46.083Z,101010.25
2022-10-23T14:53:13.182Z,101005.97
2022-10-23T14:55:39.832Z,101005.66
2022-10-23T14:58:06.822Z,101001.28
2022-10-23T15:00:33.714Z,101005.47
2022-10-23T15:03:00.405Z,101010.66
2022-10-23T15:05:27.082Z,101007.94
2022-10-23T15:07:55.231Z,101002.72
2022-10-23T15:10:21.866Z,100996.63
2022-10-23T15:12:49.087Z,100998.50
2022-10-23T15:15:15.669Z,100992.88
2022-10-23T15:17:42.395Z,100990.13
2022-10-23T15:20:09.465Z,100984.75
2022-10-23T15:22:36.107Z,100990.63
2022-10-23T15:25:02.739Z,100979.59
2022-10-23T15:27:29.314Z,100971.06
2022-10-23T15:29:55.847Z,100971.06
2022-10-23T15:32:22.420Z,100971.16
2022-10-23T15:34:49.761Z,100970.34
2022-10-23T15:37:16.458Z,100963.06
2022-10-23T15:39:43.294Z,100955.94
2022-10-23T15:42:10.083Z,100948.47
2022-10-23T15:44:37.063Z,100951.38
2022-10-23T15:47:03.819Z,100958.22
2022-10-23T15:49:30.561Z,100955.72
2022-10-23T15:51:57.639Z,100952.94
2022-10-23T15:54:28.094Z,100951.28
2022-10-23T15:56:57.486Z,100946.88
2022-10-23T15:59:25.920Z,100950.84
2022-10-23T16:01:52.814Z,100943.53
2022-10-23T16:04:19.754Z,100941.22
2022-10-23T16:06:46.432Z,100944.94
2022-10-23T16:09:14.187Z,100946.25
2022-10-23T16:11:42.620Z,100949.53
2022-10-23T16:14:13.320Z,100938.06
2022-10-23T16:16:39.959Z,100942.00
2022-10-23T16:19:06.640Z,100946.59
2022-10-23T16:21:35.931Z,100943.44
2022-10-23T16:24:05.992Z,100944.50
2022-10-23T16:26:33.469Z,100935.09
2022-10-23T16:29:03.149Z,100932.59
2022-10-23T16:31:30.204Z,100931.16
2022-10-23T16:33:59.809Z,100928.84
2022-10-23T16:36:26.992Z,100942.00
2022-10-23T16:38:53.551Z,100925.34
2022-10-23T16:41:20.089Z,100924.50
2022-10-23T16:43:46.681Z,100922.00
2022-10-23T16:46:16.623Z,100931.59
2022-10-23T16:48:43.843Z,100933.28
2022-10-23T16:51:17.147Z,100927.00
2022-10-23T16:53:45.066Z,100922.44
2022-10-23T16:56:15.281Z,100912.84
2022-10-23T16:58:42.364Z,100906.16
2022-10-23T17:01:12.330Z,100903.66
2022-10-23T17:03:41.700Z,100909.72
2022-10-23T17:06:13.472Z,100908.03
2022-10-23T17:08:40.827Z,100911.78
2022-10-23T17:11:11.652Z,100910.13
2022-10-23T17:13:41.875Z,100902.19
2022-10-23T17:16:21.257Z,100891.97
2022-10-23T17:18:48.776Z,100895.31
2022-10-23T17:21:16.686Z,100893.63
2022-10-23T17:23:43.926Z,100896.34
2022-10-23T17:26:13.057Z,100897.19
2022-10-23T17:28:42.208Z,100885.69
2022-10-23T17:31:23.301Z,100883.00
2022-10-23T17:33:53.008Z,100881.31
2022-10-23T17:36:21.180Z,100870.28
2022-10-23T17:38:48.196Z,100865.25
2022-10-23T17:41:16.599Z,100857.31
2022-10-23T17:43:44.535Z,100861.88
2022-10-23T17:46:12.862Z,100849.38
2022-10-23T17:48:43.384Z,100852.53
2022-10-23T17:51:22.436Z,100843.97
2022-10-23T17:53:51.398Z,100833.34
2022-10-23T17:56:26.036Z,100820.00
2022-10-23T17:58:55.163Z,100822.69
2022-10-23T18:01:25.371Z,100826.25
2022-10-23T18:03:53.382Z,100832.69
2022-10-23T18:06:28.877Z,100834.38
2022-10-23T18:08:56.679Z,100817.69
2022-10-23T18:11:32.078Z,100809.56
2022-10-23T18:16:31.363Z,100827.28
2022-10-23T18:19:00.466Z,100827.91
2022-10-23T18:21:27.475Z,100836.25
2022-10-23T18:23:54.247Z,100833.53
2022-10-23T18:26:24.524Z,100836.88
2022-10-23T18:28:53.751Z,100829.78
2022-10-23T18:31:20.814Z,100829.78
2022-10-23T18:33:47.701Z,100824.38
2022-10-23T18:36:23.816Z,100822.91
2022-10-23T18:38:51.400Z,100812.91
2022-10-23T18:41:18.940Z,100802.28
2022-10-23T18:43:45.856Z,100802.06
2022-10-23T18:46:14.384Z,100804.13
2022-10-23T18:48:42.128Z,100812.06
2022-10-23T18:51:24.329Z,100809.59
2022-10-23T18:53:51.716Z,100804.38
2022-10-23T18:56:22.731Z,100790.81
2022-10-23T18:58:51.204Z,100787.47
2022-10-23T19:01:19.448Z,100801.03
2022-10-23T19:03:46.274Z,100808.75
2022-10-23T19:06:13.902Z,100811.06
2022-10-23T19:08:43.229Z,100797.06
2022-10-23T19:11:11.219Z,100796.50
2022-10-23T19:13:39.494Z,100791.47
2022-10-23T19:16:14.990Z,100789.59
2022-10-23T19:18:46.828Z,100786.25
2022-10-23T19:21:14.032Z,100787.91
2022-10-23T19:23:42.216Z,100786.03
2022-10-23T19:26:12.374Z,100780.63
2022-10-23T19:28:47.648Z,100781.47
2022-10-23T19:31:14.758Z,100781.47
2022-10-23T19:33:41.415Z,100776.03
2022-10-23T19:36:11.350Z,100770.63
2022-10-23T19:38:41.470Z,100758.94
2022-10-23T19:41:08.102Z,100754.84
2022-10-23T19:43:34.762Z,100752.34
2022-10-23T19:46:05.055Z,100750.91
2022-10-23T19:48:34.570Z,100744.84
2022-10-23T19:51:01.717Z,100738.59
2022-10-23T19:53:28.310Z,100728.78
2022-10-23T19:56:03.466Z,100734.84
2022-10-23T19:58:30.088Z,100733.59
2022-10-23T20:00:56.711Z,100733.81
2022-10-23T20:03:23.309Z,100737.34
2022-10-23T20:05:49.900Z,100736.31
2022-10-23T20:08:16.605Z,100742.59
2022-10-23T20:10:46.546Z,100753.22
2022-10-23T20:13:19.852Z,100754.44
2022-10-23T20:15:47.167Z,100757.97
2022-10-23T20:18:13.714Z,100748.00
2022-10-23T20:20:41.567Z,100743.44
2022-10-23T20:23:08.594Z,100741.56
2022-10-23T20:25:35.655Z,100739.03
2022-10-23T20:28:02.460Z,100736.13
2022-10-23T20:30:29.135Z,100747.16
2022-10-23T20:32:55.702Z,100732.59
2022-10-23T20:35:22.249Z,100734.63
2022-10-23T20:37:48.791Z,100737.34
2022-10-23T20:40:15.450Z,100735.09
2022-10-23T20:42:42.050Z,100734.91
2022-10-23T20:45:09.175Z,100732.38
2022-10-23T20:47:35.787Z,100734.25
2022-10-23T20:50:02.343Z,100737.81
2022-10-23T20:52:30.207Z,100725.72
2022-10-23T20:54:56.824Z,100718.63
2022-10-23T20:57:23.415Z,100719.69
2022-10-23T20:59:50.001Z,100724.25
2022-10-23T21:02:16.665Z,100715.28
2022-10-23T21:04:43.525Z,100719.47
2022-10-23T21:07:11.358Z,100707.53
2022-10-23T21:09:39.475Z,100708.84
2022-10-23T21:12:06.903Z,100709.88
2022-10-23T21:14:33.941Z,100714.25
2022-10-23T21:17:00.644Z,100721.75
2022-10-23T21:19:27.352Z,100715.28
2022-10-23T21:21:54.511Z,100716.50
2022-10-23T21:24:21.090Z,100718.38
2022-10-23T21:26:47.693Z,100724.47
2022-10-23T21:29:18.879Z,100714.84
2022-10-23T21:31:51.972Z,100722.38
2022-10-23T21:34:18.539Z,100728.00
2022-10-23T21:37:10.753Z,100733.59
2022-10-23T21:39:34.254Z,100742.38
2022-10-23T21:42:00.885Z,100740.72
2022-10-23T21:44:27.475Z,100754.06
2022-10-23T21:46:54.047Z,100764.28
2022-10-23T21:49:20.690Z,100758.66
2022-10-23T21:51:47.436Z,100761.09
2022-10-23T21:54:17.272Z,100766.13
2022-10-23T21:56:43.801Z,100778.66
2022-10-23T21:59:13.555Z,100781.16
2022-10-23T22:01:41.676Z,100771.38
2022-10-23T22:04:09.816Z,100776.31
2022-10-23T22:06:37.498Z,100769.50
2022-10-23T22:09:06.033Z,100772.19
2022-10-23T22:11:32.988Z,100770.31
2022-10-23T22:14:00.060Z,100770.69
2022-10-23T22:16:27.121Z,100762.56
2022-10-23T22:18:53.707Z,100767.16
2022-10-23T22:21:22.884Z,100766.09
2022-10-23T22:23:50.963Z,100765.88
2022-10-23T22:26:41.790Z,100772.97
2022-10-23T22:29:11.830Z,100770.69
2022-10-23T22:31:39.352Z,100783.19
2022-10-23T22:34:18.756Z,100778.38
2022-10-23T22:36:55.831Z,100777.97
2022-10-23T22:39:23.335Z,100781.91
2022-10-23T22:41:50.396Z,100782.75
2022-10-23T22:44:17.069Z,100775.84
2022-10-23T22:46:44.530Z,100778.75
2022-10-23T22:49:11.355Z,100773.97
2022-10-23T22:51:39.633Z,100777.53
2022-10-23T22:54:06.864Z,100779.38
2022-10-23T22:56:34.067Z,100779.59
2022-10-23T22:59:00.647Z,100795.84
2022-10-23T23:01:42.775Z,100793.13
2022-10-23T23:04:25.940Z,100785.63
2022-10-23T23:06:58.500Z,100795.41
2022-10-23T23:09:25.041Z,100791.88
2022-10-23T23:11:52.606Z,100784.78
2022-10-23T23:14:23.516Z,100786.25
2022-10-23T23:16:52.623Z,100785.41
2022-10-23T23:19:19.693Z,100786.25
2022-10-23T23:21:46.258Z,100773.94
2022-10-23T23:24:12.874Z,100776.84
2022-10-23T23:26:39.455Z,100768.09
2022-10-23T23:29:06.492Z,100758.94
2022-10-23T23:31:33.085Z,100757.91
2022-10-23T23:33:59.749Z,100754.56
2022-10-23T23:36:27.370Z,100756.44
2022-10-23T23:38:54.089Z,100753.88
2022-10-23T23:41:21.567Z,100757.25
2022-10-23T23:43:48.823Z,100753.50
2022-10-23T23:46:18.068Z,100730.19
2022-10-23T23:48:48.026Z,100753.50
2022-10-23T23:51:16.319Z,100708.50
2022-10-23T23:53:43.088Z,100711.22
2022-10-23T23:56:09.905Z,100712.06
2022-10-23T23:58:36.520Z,100721.38
